EGNTEGNV

Guest
Details From EGNT - Newcastle
To EGNV - Durham Tees Valley
Flight Number -
Tags generated
Created
Modified
Stats Distance 33 nm / 62 km
Max Altitude 100 ft / 30 m
Waypoints 3
Social Downloads 2
Likes 0
Share VATSIM

Download

Looking for another format? Having issues loading an existing format? Contact us
Advertisement - Login to hide

Notes

Basic altitude profile: - Ascent Rate: 2500ft/min - Ascent Speed: 250kts - Cruise Altitude: 35000ft - Cruise Speed: 420kts - Descent Rate: 1500ft/min - Descent Speed: 250kts Options: - Use NATs: yes - Use PACOTS: yes - Use low airways: yes - Use high airways: no

Route

EGNT NEW EGNV

ID Type Via Altitude Latitude Longitude Leg Dist Tot Dist Heading (true) Name
O EGNT APT - 0 ft / 0 m 55.03792˚ -1.68983˚ - 0 nm - Newcastle
NEW VOR - 100 ft / 30 m 55.03845˚ -1.69837˚ 0 nm 0 nm 276° / 276° NEWCASTLE VOR-DME
O EGNV APT - 0 ft / 0 m 54.50919˚ -1.42943˚ 33 nm 33 nm 164° / 164° Durham Tees Valley

Altitude Profile

Advertisement - Login to hide

EGNT

Details ICAO EGNT (NCL)
Name Newcastle
Region United Kingdom
Timezone Europe/London (UTC+0.0)
Stats Elevation 266 ft / 81 m (AMSL)
Location 55.037922° -1.689833°
Runways 1
Magnetic Variation 1.477° W

METAR

EGNT 151420Z 34014KT 9999 FEW019 04/02 Q1004

Decode

TAF

TAF EGNT 151102Z 1512/1612 33012KT 9999 SCT025 TEMPO 1512/1516 33015G25KT 7000 SHRA BKN012 BECMG 1518/1521 27008KT

Decode

Departure Runways

ID Width Length Bearing (true) Bearing (mag) Surface Threshold Offset Overrun Length
07 151 ft / 46 m 7,621 ft / 2,323 m 65.13° 66.61° Asphalt 394 ft / 120 m 108 ft / 33 m
25 151 ft / 46 m 7,621 ft / 2,323 m 245.16° 246.64° Asphalt 446 ft / 136 m 56 ft / 17 m

EGNV

Details ICAO EGNV (MME)
Name Durham Tees Valley
Region United Kingdom
Timezone Europe/London (UTC+0.0)
Stats Elevation 120 ft / 37 m (AMSL)
Location 54.509191° -1.429433°
Runways 1
Magnetic Variation 1.299° W

METAR

EGNV 151420Z 33012KT 9999 FEW015 04/02 Q1003

Decode

TAF

Not found

Destination Runways

ID Width Length Bearing (true) Bearing (mag) Surface Threshold Offset Overrun Length
05 148 ft / 45 m 7,501 ft / 2,286 m 47.37° 48.67° Asphalt 0 ft / 0 m 400 ft / 122 m
23 148 ft / 45 m 7,501 ft / 2,286 m 227.39° 228.69° Asphalt 0 ft / 0 m 0 ft / 0 m

Approach Navaids

Runway Type Ident Frequency Range Bearing (true) Bearing (mag) Slope Elevation
05 Localiser ITSE 108.50 MHz 18 nm / 33 km 47.43° 48.73° - 115 ft / 35 m (AMSL)
05 Glidescope ITSE 108.50 MHz 10 nm / 19 km 47.38° 48.68° 3.00° 146 ft / 45 m (AMSL)
05 DME ITSE 108.50 MHz 18 nm / 33 km - - - 131 ft / 40 m (AMSL)
23 Localiser ITD 108.50 MHz 18 nm / 33 km 227.34° 228.64° - 135 ft / 41 m (AMSL)
23 Glidescope ITD 108.50 MHz 10 nm / 19 km 227.38° 228.68° 3.00° 146 ft / 45 m (AMSL)
23 DME ITD 108.50 MHz 18 nm / 33 km - - - 131 ft / 40 m (AMSL)

Popular Alternatives